Time;durP1;ratioP1;P1;durP2;ratioP2;P2;SDS_P1;SDS_P2;PMS_P1;PMS_P2;Temp;Humidity;BMP_temperature;BMP_pressure;BME280_temperature;BME280_humidity;BME280_pressure;Samples;Min_cycle;Max_cycle;Signal;HPM_P1;HPM_P2
2021/07/10 00:02:20;;;;;;;4.80;3.17;;;30.20;99.90;;;;;;5035471;28;20627;-94
2021/07/10 00:07:35;;;;;;;3.50;2.97;;;30.40;99.90;;;;;;5055752;28;20295;-95
2021/07/10 00:10:13;;;;;;;4.00;2.90;;;30.20;99.90;;;;;;5054733;28;20208;-95
2021/07/10 00:12:45;;;;;;;3.13;2.70;;;30.40;99.90;;;;;;5055071;28;20286;-94
2021/07/10 00:15:18;;;;;;;3.63;3.00;;;30.60;99.90;;;;;;5054689;28;20745;-96
2021/07/10 00:17:50;;;;;;;3.90;3.20;;;30.70;99.90;;;;;;5034774;28;21108;-95
2021/07/10 00:20:21;;;;;;;2.93;2.70;;;30.40;99.90;;;;;;5035384;28;20213;-95
2021/07/10 00:22:52;;;;;;;6.57;3.50;;;30.50;99.90;;;;;;5035691;28;20294;-93
2021/07/10 00:25:25;;;;;;;3.37;3.07;;;30.70;99.90;;;;;;5036771;28;20228;-92
2021/07/10 00:27:57;;;;;;;5.03;2.90;;;30.50;99.90;;;;;;5036811;28;20236;-94
2021/07/10 00:30:30;;;;;;;6.40;3.10;;;30.30;99.90;;;;;;5037136;28;20299;-93
2021/07/10 00:33:02;;;;;;;4.40;2.63;;;30.40;99.90;;;;;;5054542;28;20240;-93
2021/07/10 00:35:35;;;;;;;3.33;3.03;;;30.20;99.90;;;;;;5056336;28;20200;-93
2021/07/10 00:38:06;;;;;;;4.30;3.27;;;30.30;99.90;;;;;;5056582;28;20220;-93
2021/07/10 00:40:39;;;;;;;5.47;3.43;;;30.40;99.90;;;;;;5066320;28;20302;-95
2021/07/10 00:43:10;;;;;;;4.63;3.00;;;30.40;99.90;;;;;;5081046;28;20210;-94
2021/07/10 00:45:41;;;;;;;5.40;3.20;;;30.30;99.90;;;;;;5090662;28;20195;-93
2021/07/10 00:48:13;;;;;;;4.43;2.70;;;30.10;99.90;;;;;;5086337;28;20241;-93
2021/07/10 00:50:44;;;;;;;4.03;2.90;;;30.10;99.90;;;;;;5077041;28;20290;-94
2021/07/10 00:53:15;;;;;;;3.77;2.80;;;29.50;99.90;;;;;;5061469;28;20259;-94
2021/07/10 00:55:48;;;;;;;3.67;2.50;;;29.50;99.90;;;;;;5062997;28;20239;-94
2021/07/10 00:58:20;;;;;;;5.20;3.10;;;30.00;99.90;;;;;;5063730;28;20209;-92
2021/07/10 01:00:51;;;;;;;4.07;2.70;;;30.50;99.90;;;;;;5063312;28;20295;-94
2021/07/10 01:03:23;;;;;;;4.00;2.97;;;30.50;99.90;;;;;;5065540;28;20276;-94
2021/07/10 01:05:54;;;;;;;3.10;2.80;;;31.00;99.90;;;;;;5060212;28;20212;-94
2021/07/10 01:08:25;;;;;;;4.27;3.00;;;31.70;99.90;;;;;;5060166;28;20219;-95
2021/07/10 01:10:59;;;;;;;4.73;2.67;;;31.50;99.90;;;;;;5075803;28;20222;-95
2021/07/10 01:13:30;;;;;;;3.83;2.67;;;30.90;99.90;;;;;;5079719;28;20231;-94
2021/07/10 01:16:02;;;;;;;3.10;2.90;;;31.00;99.90;;;;;;5068847;28;20227;-93
2021/07/10 01:18:33;;;;;;;3.25;2.97;;;31.90;99.90;;;;;;5058482;28;20201;-95
2021/07/10 01:21:08;;;;;;;3.10;2.70;;;31.80;99.90;;;;;;5055750;28;20201;-94
2021/07/10 01:23:39;;;;;;;3.00;2.80;;;31.00;99.90;;;;;;5040600;28;20243;-94
2021/07/10 01:26:10;;;;;;;4.87;2.80;;;30.90;99.90;;;;;;5040424;28;20277;-95
2021/07/10 01:28:40;;;;;;;3.27;2.97;;;30.90;99.90;;;;;;5039255;28;20288;-95
2021/07/10 01:31:12;;;;;;;3.60;3.30;;;30.60;99.90;;;;;;5037844;28;20263;-96
2021/07/10 01:33:43;;;;;;;3.07;2.77;;;30.70;99.90;;;;;;5020867;28;20309;-96
2021/07/10 01:36:16;;;;;;;4.33;2.87;;;31.70;99.90;;;;;;5038408;28;20280;-96
2021/07/10 01:41:30;;;;;;;2.73;2.53;;;32.50;99.90;;;;;;5070146;22;20224;-95
2021/07/10 01:44:02;;;;;;;5.80;2.80;;;32.50;99.90;;;;;;5044835;28;20201;-94
2021/07/10 01:46:35;;;;;;;3.00;2.63;;;32.20;99.90;;;;;;5200152;22;20306;-95
2021/07/10 01:49:19;;;;;;;3.15;2.85;;;31.80;99.90;;;;;;5047659;28;20228;-96
2021/07/10 01:51:52;;;;;;;3.37;2.67;;;31.50;99.90;;;;;;5044218;28;20236;-96
2021/07/10 01:54:24;;;;;;;3.05;2.75;;;31.70;99.90;;;;;;5048513;28;20204;-94
2021/07/10 01:57:13;;;;;;;3.33;2.65;;;32.00;99.90;;;;;;5047371;28;20251;-95
2021/07/10 01:59:45;;;;;;;4.72;2.83;;;31.90;99.90;;;;;;5043840;28;20249;-96
2021/07/10 02:02:55;;;;;;;5.05;2.75;;;32.30;99.90;;;;;;5048506;22;20305;-96
2021/07/10 02:08:35;;;;;;;3.15;2.72;;;31.10;99.90;;;;;;5102222;22;20240;-95
2021/07/10 02:11:11;;;;;;;4.07;3.17;;;31.40;99.90;;;;;;5071377;22;20240;-96
2021/07/10 02:13:49;;;;;;;3.03;2.50;;;31.80;99.90;;;;;;5104180;22;20276;-96
2021/07/10 02:16:25;;;;;;;3.30;2.40;;;32.20;99.90;;;;;;5064775;22;20224;-96
2021/07/10 02:19:06;;;;;;;4.53;2.80;;;32.20;99.90;;;;;;5047868;28;20213;-96
2021/07/10 02:21:41;;;;;;;2.92;2.60;;;32.10;99.90;;;;;;5046390;28;20205;-96
2021/07/10 02:24:14;;;;;;;2.85;2.58;;;32.20;99.90;;;;;;5045696;28;20295;-96
2021/07/10 02:26:51;;;;;;;4.50;2.50;;;32.10;99.90;;;;;;5047515;28;20193;-96
2021/07/10 02:29:22;;;;;;;3.28;2.72;;;32.20;99.90;;;;;;5045480;28;20236;-96
2021/07/10 02:31:55;;;;;;;4.47;3.10;;;32.20;99.90;;;;;;5036316;28;20239;-96
2021/07/10 02:37:10;;;;;;;5.28;2.92;;;31.50;99.90;;;;;;5024693;28;20205;-96
2021/07/10 02:39:44;;;;;;;3.47;2.90;;;30.80;99.90;;;;;;5025828;28;20351;-96
2021/07/10 02:42:21;;;;;;;4.33;2.60;;;29.60;99.90;;;;;;5042764;22;20233;-96
2021/07/10 02:45:07;;;;;;;4.03;3.07;;;28.60;99.90;;;;;;5045871;28;20193;-96
2021/07/10 02:47:43;;;;;;;3.87;2.83;;;28.00;99.90;;;;;;5045818;28;20204;-96
2021/07/10 02:50:19;;;;;;;6.03;3.33;;;27.40;99.90;;;;;;5029058;28;20192;-96
2021/07/10 02:52:53;;;;;;;4.50;2.80;;;27.00;99.90;;;;;;5047854;28;20213;-96
2021/07/10 02:55:42;;;;;;;5.40;2.77;;;26.80;99.90;;;;;;5046901;28;20188;-96
2021/07/10 02:58:21;;;;;;;3.17;2.50;;;26.40;99.90;;;;;;5069735;22;20293;-96
2021/07/10 03:01:01;;;;;;;3.87;2.77;;;26.10;99.90;;;;;;5018965;28;20305;-96
2021/07/10 03:03:47;;;;;;;3.10;2.57;;;25.80;99.90;;;;;;5022227;28;20744;-96
2021/07/10 03:06:26;;;;;;;5.23;2.60;;;25.70;99.90;;;;;;5028212;28;20233;-96
2021/07/10 03:09:06;;;;;;;2.97;2.53;;;25.50;99.90;;;;;;5025520;28;20261;-96
2021/07/10 03:11:43;;;;;;;3.13;2.67;;;25.30;99.90;;;;;;4992695;28;20213;-96
2021/07/10 03:14:22;;;;;;;4.57;2.90;;;25.20;99.90;;;;;;5029189;28;20220;-96
2021/07/10 03:17:02;;;;;;;3.33;3.00;;;25.20;99.90;;;;;;5027450;28;20290;-96
2021/07/10 03:22:33;;;;;;;3.43;2.70;;;25.00;99.90;;;;;;5244940;22;20234;-96
2021/07/10 03:25:11;;;;;;;5.40;2.60;;;24.90;99.90;;;;;;5076865;22;20263;-96
2021/07/10 03:30:23;;;;;;;2.87;2.47;;;24.70;99.90;;;;;;5026672;28;20946;-96
2021/07/10 03:32:55;;;;;;;3.37;2.90;;;24.70;99.90;;;;;;5027581;28;20359;-96
2021/07/10 03:35:27;;;;;;;4.03;2.50;;;24.50;99.90;;;;;;5022701;28;20233;-95
2021/07/10 03:37:59;;;;;;;4.10;3.10;;;24.50;99.90;;;;;;5020995;28;20289;-95
2021/07/10 03:40:30;;;;;;;4.30;3.60;;;24.40;99.90;;;;;;5017196;28;20301;-96
2021/07/10 03:43:01;;;;;;;4.20;2.80;;;24.20;99.90;;;;;;5018392;28;20217;-95
2021/07/10 03:45:34;;;;;;;4.60;3.27;;;24.10;99.90;;;;;;5017264;28;20286;-96
2021/07/10 03:48:06;;;;;;;3.37;3.00;;;24.00;99.90;;;;;;5016781;28;20655;-95
2021/07/10 03:50:40;;;;;;;3.70;3.40;;;23.90;99.90;;;;;;5017838;28;20277;-96
2021/07/10 03:53:12;;;;;;;4.37;3.40;;;23.80;99.90;;;;;;5018151;28;20257;-96
2021/07/10 03:55:45;;;;;;;4.37;3.13;;;23.70;99.90;;;;;;5017157;28;20209;-96
2021/07/10 03:58:16;;;;;;;3.73;3.13;;;23.70;99.90;;;;;;5015997;28;20213;-96
2021/07/10 04:00:49;;;;;;;3.90;2.87;;;23.60;99.90;;;;;;5016057;28;20219;-96
2021/07/10 04:03:20;;;;;;;5.10;2.67;;;23.40;99.90;;;;;;5036240;28;20243;-96
2021/07/10 04:05:51;;;;;;;3.80;3.10;;;23.30;99.90;;;;;;5036544;28;20217;-96
2021/07/10 04:08:22;;;;;;;3.97;2.70;;;23.20;99.90;;;;;;5031444;28;20233;-96
2021/07/10 04:10:53;;;;;;;4.80;2.70;;;23.20;99.90;;;;;;5015687;28;20670;-96
2021/07/10 04:13:24;;;;;;;4.70;2.73;;;23.10;99.90;;;;;;5016980;28;20320;-96
2021/07/10 04:15:58;;;;;;;4.07;2.80;;;23.00;99.90;;;;;;5014736;28;20241;-96
2021/07/10 04:18:29;;;;;;;4.13;2.73;;;22.90;99.90;;;;;;4997109;28;20233;-96
2021/07/10 04:21:01;;;;;;;4.30;3.10;;;22.80;99.90;;;;;;4996898;28;20206;-96
2021/07/10 04:23:32;;;;;;;2.87;2.50;;;22.70;99.90;;;;;;4997275;28;20217;-96
2021/07/10 04:26:04;;;;;;;4.63;2.87;;;22.60;99.90;;;;;;4997204;28;20291;-96
2021/07/10 04:28:36;;;;;;;3.60;3.00;;;22.50;99.90;;;;;;4997271;28;20218;-96
2021/07/10 04:31:09;;;;;;;3.90;2.70;;;22.50;99.90;;;;;;5015173;28;20216;-95
2021/07/10 04:33:40;;;;;;;7.87;3.03;;;22.40;99.90;;;;;;5016202;28;20757;-95
2021/07/10 04:36:11;;;;;;;6.97;3.07;;;22.30;99.90;;;;;;5017530;28;20210;-94
2021/07/10 04:38:43;;;;;;;8.77;4.97;;;22.20;99.90;;;;;;5017244;28;20300;-94
2021/07/10 04:41:15;;;;;;;4.63;3.87;;;22.10;99.90;;;;;;5015386;28;20205;-95
2021/07/10 04:43:47;;;;;;;3.47;3.17;;;22.00;99.90;;;;;;5029901;28;20213;-94
2021/07/10 04:46:20;;;;;;;3.03;2.70;;;21.80;99.90;;;;;;5035911;28;20209;-95
2021/07/10 04:48:51;;;;;;;3.87;3.07;;;21.70;99.90;;;;;;5035780;28;20212;-95
2021/07/10 04:51:22;;;;;;;4.53;3.10;;;21.60;99.90;;;;;;5018725;28;20628;-95
2021/07/10 04:53:54;;;;;;;7.77;3.30;;;21.50;99.90;;;;;;5016541;28;20621;-95
2021/07/10 04:56:26;;;;;;;3.43;2.73;;;21.40;99.90;;;;;;5017162;28;20347;-95
2021/07/10 04:58:57;;;;;;;3.60;2.67;;;21.20;99.90;;;;;;5017342;28;20225;-95
2021/07/10 05:01:30;;;;;;;3.80;3.17;;;21.20;99.90;;;;;;5014109;28;20232;-94
2021/07/10 05:04:02;;;;;;;5.53;3.27;;;21.10;99.90;;;;;;5015835;28;20292;-95
2021/07/10 05:06:33;;;;;;;5.47;3.50;;;21.10;99.90;;;;;;5015565;28;20287;-95
2021/07/10 05:09:05;;;;;;;10.13;4.70;;;21.00;99.90;;;;;;5016948;28;20328;-95
2021/07/10 05:11:37;;;;;;;5.67;3.40;;;21.00;99.90;;;;;;5015365;28;20210;-96
2021/07/10 05:14:08;;;;;;;4.03;3.00;;;20.80;99.90;;;;;;5015826;28;20319;-94
2021/07/10 05:16:41;;;;;;;7.07;3.40;;;20.70;99.90;;;;;;5010203;28;20244;-95
2021/07/10 05:19:13;;;;;;;3.50;3.20;;;20.50;99.90;;;;;;5006219;28;20202;-94
2021/07/10 05:21:44;;;;;;;3.80;3.40;;;20.40;99.90;;;;;;4995204;28;20238;-93
2021/07/10 05:24:18;;;;;;;6.23;3.53;;;20.50;99.90;;;;;;5001715;28;20233;-93
2021/07/10 05:26:50;;;;;;;4.93;3.07;;;20.40;99.90;;;;;;5018700;28;20225;-93
2021/07/10 05:29:21;;;;;;;3.37;3.00;;;20.30;99.90;;;;;;5018611;28;20220;-94
2021/07/10 05:31:56;;;;;;;6.63;3.07;;;20.30;99.90;;;;;;5026422;28;20214;-93
2021/07/10 05:34:27;;;;;;;3.20;2.87;;;20.30;99.90;;;;;;5023350;28;20225;-93
2021/07/10 05:36:58;;;;;;;4.53;3.00;;;20.30;99.90;;;;;;5019916;28;20216;-93
2021/07/10 05:39:31;;;;;;;3.37;2.73;;;20.20;99.90;;;;;;5018510;28;20471;-93
2021/07/10 05:42:03;;;;;;;3.57;2.73;;;20.20;99.90;;;;;;5022369;28;20311;-93
2021/07/10 05:44:36;;;;;;;5.57;3.20;;;20.20;99.90;;;;;;5040959;28;20225;-93
2021/07/10 05:47:12;;;;;;;2.67;2.47;;;20.20;99.90;;;;;;5038293;28;20260;-94
2021/07/10 05:49:45;;;;;;;3.73;3.00;;;20.20;99.90;;;;;;5022558;28;20241;-93
2021/07/10 05:52:17;;;;;;;4.77;2.83;;;20.10;99.90;;;;;;5024811;28;20250;-93
2021/07/10 05:54:49;;;;;;;3.37;2.77;;;20.20;99.90;;;;;;5020711;28;20324;-93
2021/07/10 05:57:21;;;;;;;3.83;2.60;;;20.10;99.90;;;;;;5019571;28;20236;-93
2021/07/10 05:59:56;;;;;;;2.90;2.53;;;20.10;99.90;;;;;;5023748;28;20214;-93
2021/07/10 06:02:30;;;;;;;4.07;2.97;;;20.00;99.90;;;;;;5028188;28;20225;-94
2021/07/10 06:05:06;;;;;;;3.10;2.60;;;20.00;99.90;;;;;;5001487;28;20225;-94
2021/07/10 06:07:39;;;;;;;3.80;3.23;;;19.90;99.90;;;;;;5019777;28;20225;-94
2021/07/10 06:13:09;;;;;;;4.40;3.00;;;19.80;99.90;;;;;;5024169;28;20261;-93
2021/07/10 06:21:14;;;;;;;3.23;2.93;;;19.60;99.90;;;;;;5015422;28;20209;-93
2021/07/10 06:26:34;;;;;;;3.20;2.90;;;19.40;99.90;;;;;;5028888;28;20209;-91
2021/07/10 06:34:52;;;;;;;3.13;2.70;;;19.30;99.90;;;;;;5038502;28;20243;-92
2021/07/10 06:37:38;;;;;;;5.80;2.80;;;19.20;99.90;;;;;;5037566;28;20208;-93
2021/07/10 06:40:13;;;;;;;3.27;2.87;;;19.10;99.90;;;;;;5056954;28;20205;-93
2021/07/10 06:42:46;;;;;;;3.70;2.60;;;19.00;99.90;;;;;;5055161;28;20216;-92
2021/07/10 06:45:19;;;;;;;3.13;2.87;;;19.00;99.90;;;;;;5044074;28;20224;-93
2021/07/10 06:53:54;;;;;;;4.60;3.07;;;18.80;99.90;;;;;;5003956;28;20202;-92
2021/07/10 06:56:42;;;;;;;3.50;3.17;;;18.70;99.90;;;;;;5013256;28;20241;-93
2021/07/10 06:59:20;;;;;;;3.87;2.67;;;18.70;99.90;;;;;;5024154;28;20202;-92
2021/07/10 07:01:55;;;;;;;3.97;2.70;;;18.60;99.90;;;;;;5032723;28;20662;-93
2021/07/10 07:04:32;;;;;;;4.90;2.93;;;18.50;99.90;;;;;;5023924;28;20224;-94
2021/07/10 07:07:08;;;;;;;3.97;2.80;;;18.50;99.90;;;;;;5024092;28;20269;-93
2021/07/10 07:09:40;;;;;;;3.77;2.87;;;18.50;99.90;;;;;;5041967;28;20193;-93
2021/07/10 07:12:13;;;;;;;6.80;3.07;;;18.40;99.90;;;;;;5037397;28;20214;-94
2021/07/10 07:14:57;;;;;;;5.43;2.63;;;18.30;99.90;;;;;;5036623;28;20240;-93
2021/07/10 07:17:41;;;;;;;4.90;2.60;;;18.30;99.90;;;;;;5053822;28;20189;-93
2021/07/10 07:23:06;;;;;;;4.03;3.03;;;18.20;99.90;;;;;;5028659;28;20212;-94
2021/07/10 07:25:38;;;;;;;3.67;2.50;;;18.10;99.90;;;;;;5033445;28;20205;-94
2021/07/10 07:28:10;;;;;;;3.30;2.57;;;18.10;99.90;;;;;;5050416;28;20196;-94
2021/07/10 07:30:42;;;;;;;4.00;2.60;;;18.10;99.90;;;;;;5040205;28;20205;-94
2021/07/10 07:33:13;;;;;;;4.47;2.80;;;18.10;99.90;;;;;;5032350;28;20202;-94
2021/07/10 07:35:45;;;;;;;7.83;2.50;;;18.00;99.90;;;;;;5019837;28;20296;-93
2021/07/10 07:38:47;;;;;;;3.60;2.53;;;17.90;99.90;;;;;;5018219;28;20240;-94
2021/07/10 07:41:19;;;;;;;3.33;2.77;;;17.90;99.90;;;;;;4997790;28;20252;-94
2021/07/10 07:43:59;;;;;;;3.90;2.73;;;17.90;99.90;;;;;;4997375;28;20235;-94
2021/07/10 07:46:30;;;;;;;4.37;2.43;;;17.80;99.90;;;;;;4998629;28;20647;-94
2021/07/10 07:49:04;;;;;;;3.50;2.70;;;17.80;99.90;;;;;;5019439;28;20288;-94
2021/07/10 07:51:35;;;;;;;3.60;3.13;;;17.80;99.90;;;;;;5016720;28;20260;-94
2021/07/10 07:54:12;;;;;;;4.07;2.97;;;17.70;99.90;;;;;;5018854;28;20229;-93
2021/07/10 07:56:43;;;;;;;3.93;2.60;;;17.70;99.90;;;;;;5036037;28;20330;-93
2021/07/10 07:59:29;;;;;;;4.27;2.87;;;17.70;99.90;;;;;;5026755;28;20206;-93
2021/07/10 08:02:01;;;;;;;5.03;2.70;;;17.60;99.90;;;;;;5016221;28;20248;-93
2021/07/10 08:04:34;;;;;;;3.97;3.00;;;17.60;99.90;;;;;;4996704;28;20206;-93
2021/07/10 08:07:06;;;;;;;3.83;2.50;;;17.60;99.90;;;;;;5012416;28;20223;-94
2021/07/10 08:09:39;;;;;;;3.97;2.73;;;17.60;99.90;;;;;;5019876;28;20317;-93
2021/07/10 08:12:13;;;;;;;3.60;2.70;;;17.60;99.90;;;;;;5018363;28;20296;-94
2021/07/10 08:14:47;;;;;;;2.90;2.70;;;17.50;99.90;;;;;;5033001;28;20233;-94
2021/07/10 08:17:18;;;;;;;3.93;2.93;;;17.50;99.90;;;;;;5015546;28;20257;-92
2021/07/10 08:19:50;;;;;;;2.73;2.53;;;17.50;99.90;;;;;;5009766;28;20212;-93
2021/07/10 08:22:23;;;;;;;3.47;2.80;;;17.50;99.90;;;;;;5015319;28;20201;-92
2021/07/10 08:25:05;;;;;;;3.83;2.60;;;17.40;99.90;;;;;;5016929;28;20248;-94
2021/07/10 08:27:37;;;;;;;3.60;2.50;;;17.40;99.90;;;;;;4996437;28;20226;-94
2021/07/10 08:30:10;;;;;;;4.37;2.53;;;17.30;99.90;;;;;;5009585;28;20728;-94
2021/07/10 08:32:42;;;;;;;3.27;2.97;;;17.30;99.90;;;;;;5015444;28;20210;-93
2021/07/10 08:35:14;;;;;;;4.53;3.00;;;17.30;99.90;;;;;;5015649;28;20293;-93
2021/07/10 08:37:47;;;;;;;4.43;3.07;;;17.20;99.90;;;;;;5014512;28;20296;-93
2021/07/10 08:40:22;;;;;;;4.00;2.87;;;17.10;99.90;;;;;;5030506;28;20211;-94
2021/07/10 08:42:53;;;;;;;4.30;2.87;;;17.10;99.90;;;;;;5034783;28;20705;-93
2021/07/10 08:45:24;;;;;;;6.33;2.93;;;17.10;99.90;;;;;;5022763;28;20240;-93
2021/07/10 08:47:57;;;;;;;3.50;2.77;;;17.00;99.90;;;;;;5019907;28;20533;-93
2021/07/10 08:50:37;;;;;;;3.50;2.70;;;17.10;99.90;;;;;;5016530;28;20222;-93
2021/07/10 08:53:09;;;;;;;5.10;2.53;;;17.00;99.90;;;;;;5008956;28;20284;-93
2021/07/10 08:55:42;;;;;;;4.27;3.30;;;17.00;99.90;;;;;;5013972;28;20263;-92
2021/07/10 08:58:14;;;;;;;3.13;2.83;;;16.90;99.90;;;;;;5015491;28;20345;-92
2021/07/10 09:00:45;;;;;;;4.63;3.00;;;17.00;99.90;;;;;;5028471;28;20678;-92
2021/07/10 09:03:17;;;;;;;3.13;2.20;;;17.00;99.90;;;;;;5006364;28;20281;-92
2021/07/10 09:05:50;;;;;;;3.43;2.63;;;17.00;99.90;;;;;;5020485;28;20296;-92
2021/07/10 09:08:24;;;;;;;7.90;3.10;;;17.00;99.90;;;;;;5021024;28;20285;-92
2021/07/10 09:11:02;;;;;;;3.33;2.83;;;17.10;99.90;;;;;;5027989;28;20237;-93
2021/07/10 09:13:38;;;;;;;3.77;2.93;;;17.00;99.90;;;;;;5037978;28;20205;-93
2021/07/10 09:16:11;;;;;;;3.60;2.60;;;17.00;99.90;;;;;;5026247;28;20315;-92
2021/07/10 09:18:46;;;;;;;4.33;2.70;;;16.90;99.90;;;;;;5020242;28;20209;-93
2021/07/10 09:21:35;;;;;;;7.70;2.70;;;16.90;99.90;;;;;;5037944;28;20292;-93
2021/07/10 09:24:07;;;;;;;3.90;2.40;;;16.90;99.90;;;;;;5029558;28;20689;-94
2021/07/10 09:26:46;;;;;;;3.33;2.77;;;16.80;99.90;;;;;;5016981;28;20201;-93
2021/07/10 09:29:20;;;;;;;2.93;2.50;;;16.90;99.90;;;;;;5033116;28;20293;-93
2021/07/10 09:31:57;;;;;;;5.10;2.90;;;16.80;99.90;;;;;;5036456;28;20209;-94
2021/07/10 09:34:33;;;;;;;3.30;2.40;;;16.80;99.90;;;;;;5039405;28;20210;-94
2021/07/10 09:37:06;;;;;;;3.93;2.87;;;16.90;99.90;;;;;;5034477;28;20267;-94
2021/07/10 09:39:40;;;;;;;3.43;2.60;;;16.90;99.90;;;;;;5015763;28;20241;-93
2021/07/10 09:42:14;;;;;;;5.60;2.73;;;16.90;99.90;;;;;;5037583;28;20327;-93
2021/07/10 09:44:47;;;;;;;2.93;2.50;;;16.90;99.90;;;;;;5039016;28;20212;-93
2021/07/10 09:47:25;;;;;;;3.20;2.90;;;16.90;99.90;;;;;;5037535;28;20566;-93
2021/07/10 09:49:58;;;;;;;3.97;2.70;;;16.90;99.90;;;;;;5015480;28;20205;-94
2021/07/10 09:52:33;;;;;;;2.87;2.30;;;16.90;99.90;;;;;;5018396;28;20244;-94
2021/07/10 09:55:07;;;;;;;3.37;2.63;;;16.80;99.90;;;;;;5018518;28;20216;-94
2021/07/10 09:57:42;;;;;;;3.67;2.57;;;16.80;99.90;;;;;;5018364;28;20269;-94
2021/07/10 10:00:17;;;;;;;3.70;2.90;;;16.80;99.90;;;;;;5033124;28;20231;-93
2021/07/10 10:02:50;;;;;;;4.23;3.13;;;16.80;99.90;;;;;;5020411;28;20221;-94
2021/07/10 10:05:24;;;;;;;4.80;2.97;;;16.80;99.90;;;;;;5031989;28;20198;-93
2021/07/10 10:08:00;;;;;;;3.20;2.90;;;16.80;99.90;;;;;;5038389;28;20200;-94
2021/07/10 10:10:34;;;;;;;6.00;3.00;;;16.80;99.90;;;;;;5040745;28;20236;-94
2021/07/10 10:13:19;;;;;;;3.53;2.97;;;16.80;99.90;;;;;;5036846;28;20190;-93
2021/07/10 10:15:53;;;;;;;3.00;2.70;;;16.70;99.90;;;;;;5036859;28;20216;-93
2021/07/10 10:18:25;;;;;;;3.30;3.00;;;16.70;99.90;;;;;;5011951;28;20266;-94
2021/07/10 10:20:57;;;;;;;3.00;2.53;;;16.80;99.90;;;;;;5013859;28;20233;-94
2021/07/10 10:23:28;;;;;;;3.37;2.87;;;16.80;99.90;;;;;;5017743;28;20244;-93
2021/07/10 10:26:02;;;;;;;3.50;3.20;;;16.80;99.90;;;;;;5010907;28;20221;-93
2021/07/10 10:28:37;;;;;;;4.97;3.07;;;16.80;99.90;;;;;;5038085;28;20217;-94
2021/07/10 10:31:08;;;;;;;4.00;2.60;;;16.80;99.90;;;;;;5032518;28;20209;-93
2021/07/10 10:33:42;;;;;;;3.93;2.63;;;16.80;99.90;;;;;;5018859;28;20747;-92
2021/07/10 10:36:13;;;;;;;3.50;2.60;;;16.70;99.90;;;;;;5013810;28;20317;-92
2021/07/10 10:38:44;;;;;;;4.67;3.00;;;16.60;99.90;;;;;;5017393;28;20232;-92
2021/07/10 10:41:15;;;;;;;3.73;2.47;;;16.50;99.90;;;;;;5041847;28;20216;-92
2021/07/10 10:43:49;;;;;;;3.47;2.93;;;16.40;99.90;;;;;;5035018;28;20261;-92
2021/07/10 10:46:23;;;;;;;4.30;2.93;;;16.40;99.90;;;;;;5019971;28;20213;-92
2021/07/10 10:49:32;;;;;;;3.20;2.50;;;16.40;99.90;;;;;;5017899;28;20304;-92
2021/07/10 10:52:27;;;;;;;4.60;2.77;;;16.40;99.90;;;;;;5020381;28;20205;-92
2021/07/10 10:54:58;;;;;;;3.00;2.70;;;16.30;99.90;;;;;;5016936;28;20214;-93
2021/07/10 10:57:34;;;;;;;4.10;2.87;;;16.20;99.90;;;;;;5003322;28;20272;-92
2021/07/10 11:00:15;;;;;;;3.73;2.77;;;16.20;99.90;;;;;;4996847;28;20621;-92
2021/07/10 11:03:04;;;;;;;4.60;2.80;;;16.20;99.90;;;;;;5015925;28;20293;-92
2021/07/10 11:05:45;;;;;;;3.63;2.70;;;16.20;99.90;;;;;;5016871;28;20236;-93
2021/07/10 11:08:33;;;;;;;3.83;2.77;;;16.10;99.90;;;;;;5017619;28;20232;-93
2021/07/10 11:11:37;;;;;;;3.10;2.80;;;16.10;99.90;;;;;;4999796;28;20250;-93
2021/07/10 11:14:14;;;;;;;6.07;3.20;;;16.10;99.90;;;;;;4997199;28;20263;-93
2021/07/10 11:17:07;;;;;;;3.63;3.00;;;16.00;99.90;;;;;;5014988;28;20236;-94
2021/07/10 11:19:51;;;;;;;3.83;3.40;;;16.00;99.90;;;;;;5016930;28;20256;-93
2021/07/10 11:22:56;;;;;;;6.37;2.83;;;15.90;99.90;;;;;;5016956;28;20213;-93
2021/07/10 11:26:02;;;;;;;5.10;2.87;;;15.90;99.90;;;;;;4946212;28;20552;-93
2021/07/10 11:28:36;;;;;;;4.03;2.87;;;15.80;99.90;;;;;;4997547;28;20248;-94
2021/07/10 11:31:10;;;;;;;3.73;2.87;;;15.80;99.90;;;;;;5003956;28;20221;-93
2021/07/10 11:34:07;;;;;;;5.77;2.90;;;15.70;99.90;;;;;;5021215;28;20245;-94
2021/07/10 11:36:43;;;;;;;5.03;3.23;;;15.60;99.90;;;;;;5020269;28;20321;-92
2021/07/10 11:39:39;;;;;;;3.10;2.80;;;15.70;99.90;;;;;;5026370;28;20272;-92
2021/07/10 11:42:48;;;;;;;3.53;3.00;;;15.60;99.90;;;;;;5036040;28;20212;-92
2021/07/10 11:45:37;;;;;;;5.77;2.77;;;15.60;99.90;;;;;;5007480;28;20242;-92
2021/07/10 11:48:24;;;;;;;5.60;2.73;;;15.60;99.90;;;;;;5030337;28;20213;-92
2021/07/10 11:51:12;;;;;;;4.80;3.20;;;15.60;99.90;;;;;;5018817;28;20245;-93
2021/07/10 11:53:43;;;;;;;3.83;2.93;;;15.50;99.90;;;;;;5030081;28;20225;-93
2021/07/10 11:56:14;;;;;;;5.70;3.30;;;15.50;99.90;;;;;;5037029;28;20201;-93
2021/07/10 11:58:46;;;;;;;4.27;3.20;;;15.50;99.90;;;;;;5034900;28;20217;-93
2021/07/10 12:01:17;;;;;;;3.83;3.10;;;15.50;99.90;;;;;;5021607;28;20329;-93
2021/07/10 12:03:49;;;;;;;5.40;3.60;;;15.40;99.90;;;;;;5030295;28;20217;-92
2021/07/10 12:06:24;;;;;;;5.60;3.10;;;15.40;99.90;;;;;;5054759;28;20193;-93
2021/07/10 12:09:02;;;;;;;3.80;3.50;;;15.40;99.90;;;;;;5035858;28;20216;-93
2021/07/10 12:11:34;;;;;;;6.07;3.50;;;15.40;99.90;;;;;;5028027;28;20724;-93
2021/07/10 12:14:09;;;;;;;4.40;2.80;;;15.40;99.90;;;;;;5035235;28;20293;-93
2021/07/10 12:16:40;;;;;;;4.33;3.23;;;15.40;99.90;;;;;;5034027;28;20216;-94
2021/07/10 12:19:17;;;;;;;3.30;3.00;;;15.40;99.90;;;;;;5020450;28;20345;-93
2021/07/10 12:22:07;;;;;;;4.57;3.20;;;15.40;99.90;;;;;;5018333;28;20209;-93
2021/07/10 12:24:38;;;;;;;6.13;3.47;;;15.40;99.90;;;;;;5035539;28;20296;-93
2021/07/10 12:27:16;;;;;;;5.23;3.40;;;15.40;99.90;;;;;;5035724;28;20289;-93
2021/07/10 12:29:54;;;;;;;3.50;3.20;;;15.40;99.90;;;;;;5021764;28;20300;-93
2021/07/10 12:32:25;;;;;;;4.87;3.30;;;15.40;99.90;;;;;;5028037;28;20568;-93
2021/07/10 12:34:57;;;;;;;3.50;3.20;;;15.30;99.90;;;;;;5027612;28;20248;-93
2021/07/10 12:37:32;;;;;;;5.30;3.30;;;15.30;99.90;;;;;;5013037;28;20605;-93
2021/07/10 12:40:08;;;;;;;3.87;3.00;;;15.30;99.90;;;;;;5015179;28;20237;-92
2021/07/10 12:42:40;;;;;;;3.77;2.70;;;15.30;99.90;;;;;;5015067;28;20583;-93
2021/07/10 12:45:12;;;;;;;5.23;3.90;;;15.30;99.90;;;;;;5015375;28;20321;-92
2021/07/10 12:47:43;;;;;;;5.83;3.20;;;15.30;99.90;;;;;;5014949;28;20241;-92
2021/07/10 12:50:15;;;;;;;5.73;3.30;;;15.30;99.90;;;;;;5014042;28;20209;-92
2021/07/10 12:53:01;;;;;;;3.43;2.80;;;15.30;99.90;;;;;;5014982;28;20292;-92
2021/07/10 12:55:48;;;;;;;4.97;3.33;;;15.30;99.90;;;;;;5015192;28;20210;-92
2021/07/10 12:58:20;;;;;;;4.97;3.47;;;15.20;99.90;;;;;;5014489;28;20237;-92
2021/07/10 13:00:51;;;;;;;4.37;2.77;;;15.20;99.90;;;;;;5013965;28;20304;-92
2021/07/10 13:03:24;;;;;;;5.13;2.87;;;15.20;99.90;;;;;;5021902;28;20209;-93
2021/07/10 13:06:05;;;;;;;4.67;3.10;;;15.20;99.90;;;;;;5032738;28;20382;-93
2021/07/10 13:08:39;;;;;;;3.50;3.13;;;15.30;99.90;;;;;;5014591;28;20263;-93
2021/07/10 13:11:11;;;;;;;3.43;3.13;;;15.30;99.90;;;;;;5005472;28;20273;-92
2021/07/10 13:13:50;;;;;;;5.53;3.30;;;15.30;99.90;;;;;;5015048;28;20234;-93
2021/07/10 13:16:22;;;;;;;3.60;3.20;;;15.30;99.90;;;;;;5027456;28;20315;-93
2021/07/10 13:18:54;;;;;;;4.40;2.83;;;15.30;99.90;;;;;;5018157;28;20237;-93
2021/07/10 13:21:28;;;;;;;4.87;3.30;;;15.40;99.90;;;;;;5013308;28;20237;-92
2021/07/10 13:24:04;;;;;;;4.90;3.10;;;15.30;99.90;;;;;;5014661;28;20296;-93
2021/07/10 13:26:37;;;;;;;4.53;3.30;;;15.40;99.90;;;;;;5015766;28;20240;-93
2021/07/10 13:29:15;;;;;;;3.40;3.10;;;15.40;99.90;;;;;;5014645;28;20225;-93
2021/07/10 13:31:48;;;;;;;3.50;2.83;;;15.40;99.90;;;;;;5019231;28;20877;-92
2021/07/10 13:34:21;;;;;;;3.90;3.20;;;15.40;99.90;;;;;;5025703;28;20235;-93
2021/07/10 13:36:53;;;;;;;4.93;3.33;;;15.50;99.90;;;;;;5026975;28;20248;-93
2021/07/10 13:39:30;;;;;;;5.63;3.50;;;15.50;99.90;;;;;;5029796;28;20324;-92
2021/07/10 13:42:04;;;;;;;4.90;3.13;;;15.50;99.90;;;;;;5014712;28;20569;-92
2021/07/10 13:44:39;;;;;;;7.70;3.50;;;15.50;99.90;;;;;;5014792;28;20217;-92
2021/07/10 13:47:11;;;;;;;5.13;3.10;;;15.50;99.90;;;;;;5016065;28;20210;-92
2021/07/10 13:49:44;;;;;;;5.10;3.43;;;15.60;99.90;;;;;;5017946;28;20288;-92
2021/07/10 13:52:26;;;;;;;6.37;3.33;;;15.60;99.90;;;;;;5016672;28;20654;-92
2021/07/10 13:55:01;;;;;;;7.77;3.77;;;15.60;99.90;;;;;;5018578;28;20244;-91
2021/07/10 13:57:34;;;;;;;9.43;3.60;;;15.70;99.90;;;;;;5017644;28;20244;-91
2021/07/10 14:00:18;;;;;;;3.93;3.07;;;15.80;99.90;;;;;;5018116;28;20712;-92
2021/07/10 14:02:52;;;;;;;4.83;3.23;;;15.90;99.90;;;;;;5018641;28;20608;-92
2021/07/10 14:05:31;;;;;;;5.00;3.43;;;16.00;99.90;;;;;;5017845;28;20241;-92
2021/07/10 14:08:04;;;;;;;5.30;3.80;;;16.10;99.90;;;;;;5030956;28;20286;-91
2021/07/10 14:10:39;;;;;;;5.70;3.60;;;16.10;99.90;;;;;;5026395;28;20218;-92
2021/07/10 14:13:12;;;;;;;7.23;3.80;;;16.20;99.90;;;;;;5036017;28;20213;-92